sensor_id;sensor_type;location;lat;lon;timestamp;temperature;humidity
66257;DHT22;53049;43.446;3.698;2023-09-19T00:00:15;21.00;99.90
66257;DHT22;53049;43.446;3.698;2023-09-19T00:02:41;21.00;99.90
66257;DHT22;53049;43.446;3.698;2023-09-19T00:05:06;21.00;99.90
66257;DHT22;53049;43.446;3.698;2023-09-19T00:07:34;21.00;99.90
66257;DHT22;53049;43.446;3.698;2023-09-19T00:10:02;20.90;99.90
66257;DHT22;53049;43.446;3.698;2023-09-19T00:12:28;20.90;99.90
66257;DHT22;53049;43.446;3.698;2023-09-19T00:14:53;21.00;99.90
66257;DHT22;53049;43.446;3.698;2023-09-19T00:17:19;20.80;99.90
66257;DHT22;53049;43.446;3.698;2023-09-19T00:19:44;20.80;99.90
66257;DHT22;53049;43.446;3.698;2023-09-19T00:22:11;20.80;99.90
66257;DHT22;53049;43.446;3.698;2023-09-19T00:24:38;20.60;99.90
66257;DHT22;53049;43.446;3.698;2023-09-19T00:27:04;20.60;99.90
66257;DHT22;53049;43.446;3.698;2023-09-19T00:29:31;20.50;99.90
66257;DHT22;53049;43.446;3.698;2023-09-19T00:31:57;20.50;99.90
66257;DHT22;53049;43.446;3.698;2023-09-19T00:34:22;20.40;99.90
66257;DHT22;53049;43.446;3.698;2023-09-19T00:36:48;20.40;99.90
66257;DHT22;53049;43.446;3.698;2023-09-19T00:39:14;20.30;99.90
66257;DHT22;53049;43.446;3.698;2023-09-19T00:41:39;20.30;99.90
66257;DHT22;53049;43.446;3.698;2023-09-19T00:44:06;20.30;99.90
66257;DHT22;53049;43.446;3.698;2023-09-19T00:46:32;20.30;99.90
66257;DHT22;53049;43.446;3.698;2023-09-19T00:48:58;20.20;99.90
66257;DHT22;53049;43.446;3.698;2023-09-19T00:51:25;20.20;99.90
66257;DHT22;53049;43.446;3.698;2023-09-19T00:53:52;20.10;99.90
66257;DHT22;53049;43.446;3.698;2023-09-19T00:56:19;20.20;99.90
66257;DHT22;53049;43.446;3.698;2023-09-19T00:58:46;20.20;99.90
66257;DHT22;53049;43.446;3.698;2023-09-19T01:01:13;20.20;99.90
66257;DHT22;53049;43.446;3.698;2023-09-19T01:03:41;20.20;99.90
66257;DHT22;53049;43.446;3.698;2023-09-19T01:06:07;20.10;99.90
66257;DHT22;53049;43.446;3.698;2023-09-19T01:08:34;20.00;99.90
66257;DHT22;53049;43.446;3.698;2023-09-19T01:11:20;20.00;99.90
66257;DHT22;53049;43.446;3.698;2023-09-19T01:17:00;20.10;99.90
66257;DHT22;53049;43.446;3.698;2023-09-19T01:19:55;20.10;99.90
66257;DHT22;53049;43.446;3.698;2023-09-19T01:22:46;20.20;99.90
66257;DHT22;53049;43.446;3.698;2023-09-19T01:30:40;20.10;99.90
66257;DHT22;53049;43.446;3.698;2023-09-19T01:33:09;20.10;99.90
66257;DHT22;53049;43.446;3.698;2023-09-19T01:35:38;19.90;99.90
66257;DHT22;53049;43.446;3.698;2023-09-19T01:38:05;20.00;99.90
66257;DHT22;53049;43.446;3.698;2023-09-19T01:40:34;20.00;99.90
66257;DHT22;53049;43.446;3.698;2023-09-19T01:43:18;19.90;99.90
66257;DHT22;53049;43.446;3.698;2023-09-19T01:48:58;19.90;99.90
66257;DHT22;53049;43.446;3.698;2023-09-19T01:51:36;19.90;99.90
66257;DHT22;53049;43.446;3.698;2023-09-19T01:54:08;19.80;99.90
66257;DHT22;53049;43.446;3.698;2023-09-19T01:56:45;19.70;99.90
66257;DHT22;53049;43.446;3.698;2023-09-19T01:59:17;19.60;99.90
66257;DHT22;53049;43.446;3.698;2023-09-19T02:01:48;19.60;99.90
66257;DHT22;53049;43.446;3.698;2023-09-19T02:04:15;19.50;99.90
66257;DHT22;53049;43.446;3.698;2023-09-19T02:06:41;19.40;99.90
66257;DHT22;53049;43.446;3.698;2023-09-19T02:09:07;19.40;99.90
66257;DHT22;53049;43.446;3.698;2023-09-19T02:11:34;19.30;99.90
66257;DHT22;53049;43.446;3.698;2023-09-19T02:14:00;19.30;99.90
66257;DHT22;53049;43.446;3.698;2023-09-19T02:16:26;19.30;99.90
66257;DHT22;53049;43.446;3.698;2023-09-19T02:18:52;19.30;99.90
66257;DHT22;53049;43.446;3.698;2023-09-19T02:21:18;19.20;99.90
66257;DHT22;53049;43.446;3.698;2023-09-19T02:23:46;19.20;99.90
66257;DHT22;53049;43.446;3.698;2023-09-19T02:26:15;19.20;99.90
66257;DHT22;53049;43.446;3.698;2023-09-19T02:28:41;19.10;99.90
66257;DHT22;53049;43.446;3.698;2023-09-19T02:31:07;19.20;99.90
66257;DHT22;53049;43.446;3.698;2023-09-19T02:33:33;19.20;99.90
66257;DHT22;53049;43.446;3.698;2023-09-19T02:35:59;19.30;99.90
66257;DHT22;53049;43.446;3.698;2023-09-19T02:38:27;19.30;99.90
66257;DHT22;53049;43.446;3.698;2023-09-19T02:40:54;19.20;99.90
66257;DHT22;53049;43.446;3.698;2023-09-19T02:43:23;19.20;99.90
66257;DHT22;53049;43.446;3.698;2023-09-19T02:45:49;19.20;99.90
66257;DHT22;53049;43.446;3.698;2023-09-19T02:48:16;19.10;99.90
66257;DHT22;53049;43.446;3.698;2023-09-19T02:50:42;19.10;99.90
66257;DHT22;53049;43.446;3.698;2023-09-19T02:53:08;19.10;99.90
66257;DHT22;53049;43.446;3.698;2023-09-19T02:55:36;19.20;99.90
66257;DHT22;53049;43.446;3.698;2023-09-19T02:58:03;19.20;99.90
66257;DHT22;53049;43.446;3.698;2023-09-19T03:00:33;19.30;99.90
66257;DHT22;53049;43.446;3.698;2023-09-19T03:03:01;19.40;99.90
66257;DHT22;53049;43.446;3.698;2023-09-19T03:05:27;19.50;99.90
66257;DHT22;53049;43.446;3.698;2023-09-19T03:07:56;19.60;99.90
66257;DHT22;53049;43.446;3.698;2023-09-19T03:10:22;19.70;99.90
66257;DHT22;53049;43.446;3.698;2023-09-19T03:12:48;19.70;99.90
66257;DHT22;53049;43.446;3.698;2023-09-19T03:15:15;19.70;99.90
66257;DHT22;53049;43.446;3.698;2023-09-19T03:17:45;19.70;99.90
66257;DHT22;53049;43.446;3.698;2023-09-19T03:20:11;19.70;99.90
66257;DHT22;53049;43.446;3.698;2023-09-19T03:22:38;19.70;99.90
66257;DHT22;53049;43.446;3.698;2023-09-19T03:25:06;19.70;99.90
66257;DHT22;53049;43.446;3.698;2023-09-19T03:27:37;19.70;99.90
66257;DHT22;53049;43.446;3.698;2023-09-19T03:30:04;19.70;99.90
66257;DHT22;53049;43.446;3.698;2023-09-19T03:32:43;19.60;99.90
66257;DHT22;53049;43.446;3.698;2023-09-19T03:35:09;19.70;99.90
66257;DHT22;53049;43.446;3.698;2023-09-19T03:37:34;19.50;99.90
66257;DHT22;53049;43.446;3.698;2023-09-19T03:40:00;19.40;99.90
66257;DHT22;53049;43.446;3.698;2023-09-19T03:42:30;19.30;99.90
66257;DHT22;53049;43.446;3.698;2023-09-19T03:44:56;19.30;99.90
66257;DHT22;53049;43.446;3.698;2023-09-19T03:47:22;19.30;99.90
66257;DHT22;53049;43.446;3.698;2023-09-19T03:49:48;19.30;99.90
66257;DHT22;53049;43.446;3.698;2023-09-19T03:52:14;19.20;99.90
66257;DHT22;53049;43.446;3.698;2023-09-19T03:54:41;19.20;99.90
66257;DHT22;53049;43.446;3.698;2023-09-19T03:57:07;19.20;99.90
66257;DHT22;53049;43.446;3.698;2023-09-19T03:59:33;19.10;99.90
66257;DHT22;53049;43.446;3.698;2023-09-19T04:01:58;18.90;99.90
66257;DHT22;53049;43.446;3.698;2023-09-19T04:04:24;18.90;99.90
66257;DHT22;53049;43.446;3.698;2023-09-19T04:06:53;18.80;99.90
66257;DHT22;53049;43.446;3.698;2023-09-19T04:09:19;18.80;99.90
66257;DHT22;53049;43.446;3.698;2023-09-19T04:11:45;18.90;99.90
66257;DHT22;53049;43.446;3.698;2023-09-19T04:14:10;19.00;99.90
66257;DHT22;53049;43.446;3.698;2023-09-19T04:16:36;19.00;99.90
66257;DHT22;53049;43.446;3.698;2023-09-19T04:19:02;18.90;99.90
66257;DHT22;53049;43.446;3.698;2023-09-19T04:21:29;18.90;99.90
66257;DHT22;53049;43.446;3.698;2023-09-19T04:23:54;19.00;99.90
66257;DHT22;53049;43.446;3.698;2023-09-19T04:26:20;19.00;99.90
66257;DHT22;53049;43.446;3.698;2023-09-19T04:28:47;19.10;99.90
66257;DHT22;53049;43.446;3.698;2023-09-19T04:31:13;19.10;99.90
66257;DHT22;53049;43.446;3.698;2023-09-19T04:33:39;19.10;99.90
66257;DHT22;53049;43.446;3.698;2023-09-19T04:36:05;19.20;99.90
66257;DHT22;53049;43.446;3.698;2023-09-19T04:38:33;19.20;99.90
66257;DHT22;53049;43.446;3.698;2023-09-19T04:40:58;19.20;99.90
66257;DHT22;53049;43.446;3.698;2023-09-19T04:43:25;19.20;99.90
66257;DHT22;53049;43.446;3.698;2023-09-19T04:45:51;19.30;99.90
66257;DHT22;53049;43.446;3.698;2023-09-19T04:48:23;19.40;99.90
66257;DHT22;53049;43.446;3.698;2023-09-19T04:50:50;19.40;99.90
66257;DHT22;53049;43.446;3.698;2023-09-19T04:53:17;19.40;99.90
66257;DHT22;53049;43.446;3.698;2023-09-19T04:55:43;19.40;99.90
66257;DHT22;53049;43.446;3.698;2023-09-19T04:58:08;19.40;99.90
66257;DHT22;53049;43.446;3.698;2023-09-19T05:00:34;19.40;99.90
66257;DHT22;53049;43.446;3.698;2023-09-19T05:03:01;19.40;99.90
66257;DHT22;53049;43.446;3.698;2023-09-19T05:05:26;19.40;99.90
66257;DHT22;53049;43.446;3.698;2023-09-19T05:07:52;19.40;99.90
66257;DHT22;53049;43.446;3.698;2023-09-19T05:10:21;19.40;99.90
66257;DHT22;53049;43.446;3.698;2023-09-19T05:12:47;19.30;99.90
66257;DHT22;53049;43.446;3.698;2023-09-19T05:15:14;19.30;99.90
66257;DHT22;53049;43.446;3.698;2023-09-19T05:17:48;19.40;99.90
66257;DHT22;53049;43.446;3.698;2023-09-19T05:20:14;19.30;99.90
66257;DHT22;53049;43.446;3.698;2023-09-19T05:23:04;19.30;99.90
66257;DHT22;53049;43.446;3.698;2023-09-19T05:25:35;19.30;99.90
66257;DHT22;53049;43.446;3.698;2023-09-19T05:28:11;19.30;99.90
66257;DHT22;53049;43.446;3.698;2023-09-19T05:30:40;19.30;99.90
66257;DHT22;53049;43.446;3.698;2023-09-19T05:33:06;19.30;99.90
66257;DHT22;53049;43.446;3.698;2023-09-19T05:35:33;19.30;99.90
66257;DHT22;53049;43.446;3.698;2023-09-19T05:37:59;19.30;99.90
66257;DHT22;53049;43.446;3.698;2023-09-19T05:40:25;19.30;99.90
66257;DHT22;53049;43.446;3.698;2023-09-19T05:42:51;19.30;99.90
66257;DHT22;53049;43.446;3.698;2023-09-19T05:45:17;19.30;99.90
66257;DHT22;53049;43.446;3.698;2023-09-19T05:47:51;19.30;99.90
66257;DHT22;53049;43.446;3.698;2023-09-19T05:50:17;19.30;99.90
66257;DHT22;53049;43.446;3.698;2023-09-19T05:52:50;19.30;99.90
66257;DHT22;53049;43.446;3.698;2023-09-19T05:55:17;19.30;99.90
66257;DHT22;53049;43.446;3.698;2023-09-19T05:57:43;19.30;99.90
66257;DHT22;53049;43.446;3.698;2023-09-19T06:00:15;19.30;99.90
66257;DHT22;53049;43.446;3.698;2023-09-19T06:02:43;19.20;99.90
66257;DHT22;53049;43.446;3.698;2023-09-19T06:05:10;19.30;99.90
66257;DHT22;53049;43.446;3.698;2023-09-19T06:07:36;19.30;99.90
66257;DHT22;53049;43.446;3.698;2023-09-19T06:10:06;19.30;99.90
66257;DHT22;53049;43.446;3.698;2023-09-19T06:12:41;19.30;99.90
66257;DHT22;53049;43.446;3.698;2023-09-19T06:15:11;19.30;99.90
66257;DHT22;53049;43.446;3.698;2023-09-19T06:17:42;19.20;99.90
66257;DHT22;53049;43.446;3.698;2023-09-19T06:20:08;19.20;99.90
66257;DHT22;53049;43.446;3.698;2023-09-19T06:22:44;19.30;99.90
66257;DHT22;53049;43.446;3.698;2023-09-19T06:25:12;19.30;99.90
66257;DHT22;53049;43.446;3.698;2023-09-19T06:27:43;19.30;99.90
66257;DHT22;53049;43.446;3.698;2023-09-19T06:30:10;19.40;99.90
66257;DHT22;53049;43.446;3.698;2023-09-19T06:32:40;19.40;99.90
66257;DHT22;53049;43.446;3.698;2023-09-19T06:35:09;19.40;99.90
66257;DHT22;53049;43.446;3.698;2023-09-19T06:37:37;19.40;99.90
66257;DHT22;53049;43.446;3.698;2023-09-19T06:40:10;19.40;99.90
66257;DHT22;53049;43.446;3.698;2023-09-19T06:42:47;19.40;99.90
66257;DHT22;53049;43.446;3.698;2023-09-19T06:45:15;19.40;99.90
66257;DHT22;53049;43.446;3.698;2023-09-19T06:47:48;19.50;99.90
66257;DHT22;53049;43.446;3.698;2023-09-19T06:50:20;19.50;99.90
66257;DHT22;53049;43.446;3.698;2023-09-19T06:52:49;19.60;99.90
66257;DHT22;53049;43.446;3.698;2023-09-19T06:55:16;19.60;99.90
66257;DHT22;53049;43.446;3.698;2023-09-19T06:57:43;19.70;99.90
66257;DHT22;53049;43.446;3.698;2023-09-19T07:00:10;19.80;99.90
66257;DHT22;53049;43.446;3.698;2023-09-19T07:03:06;19.80;99.90
66257;DHT22;53049;43.446;3.698;2023-09-19T07:05:37;19.90;99.90
66257;DHT22;53049;43.446;3.698;2023-09-19T07:08:09;19.90;99.90
66257;DHT22;53049;43.446;3.698;2023-09-19T07:10:38;19.90;99.90
66257;DHT22;53049;43.446;3.698;2023-09-19T07:13:07;19.90;99.90
66257;DHT22;53049;43.446;3.698;2023-09-19T07:15:36;20.00;99.90
66257;DHT22;53049;43.446;3.698;2023-09-19T07:18:05;20.00;99.90
66257;DHT22;53049;43.446;3.698;2023-09-19T07:20:31;20.00;99.90
66257;DHT22;53049;43.446;3.698;2023-09-19T07:23:01;20.00;99.90
66257;DHT22;53049;43.446;3.698;2023-09-19T07:25:30;20.10;99.90
66257;DHT22;53049;43.446;3.698;2023-09-19T07:27:56;20.10;99.90
66257;DHT22;53049;43.446;3.698;2023-09-19T07:30:26;20.20;99.90
66257;DHT22;53049;43.446;3.698;2023-09-19T07:32:52;20.30;99.90
66257;DHT22;53049;43.446;3.698;2023-09-19T07:35:18;20.30;99.90
66257;DHT22;53049;43.446;3.698;2023-09-19T07:37:46;20.40;99.90
66257;DHT22;53049;43.446;3.698;2023-09-19T07:40:18;20.40;99.90
66257;DHT22;53049;43.446;3.698;2023-09-19T07:42:44;20.40;99.90
66257;DHT22;53049;43.446;3.698;2023-09-19T07:45:12;20.40;99.90
66257;DHT22;53049;43.446;3.698;2023-09-19T07:47:49;20.40;99.90
66257;DHT22;53049;43.446;3.698;2023-09-19T07:50:19;20.50;99.90
66257;DHT22;53049;43.446;3.698;2023-09-19T07:52:46;20.50;99.90
66257;DHT22;53049;43.446;3.698;2023-09-19T07:55:11;20.60;99.90
66257;DHT22;53049;43.446;3.698;2023-09-19T07:57:42;20.60;99.90
66257;DHT22;53049;43.446;3.698;2023-09-19T08:00:08;20.70;99.90
66257;DHT22;53049;43.446;3.698;2023-09-19T08:02:36;20.70;99.90
66257;DHT22;53049;43.446;3.698;2023-09-19T08:05:03;20.70;99.90
66257;DHT22;53049;43.446;3.698;2023-09-19T08:07:32;20.80;99.90
66257;DHT22;53049;43.446;3.698;2023-09-19T08:09:58;20.80;99.90
66257;DHT22;53049;43.446;3.698;2023-09-19T08:12:24;20.90;99.90
66257;DHT22;53049;43.446;3.698;2023-09-19T08:14:50;20.90;99.90
66257;DHT22;53049;43.446;3.698;2023-09-19T08:17:16;20.90;99.90
66257;DHT22;53049;43.446;3.698;2023-09-19T08:19:42;21.00;99.90
66257;DHT22;53049;43.446;3.698;2023-09-19T08:22:10;21.10;99.90
66257;DHT22;53049;43.446;3.698;2023-09-19T08:24:36;21.20;99.90
66257;DHT22;53049;43.446;3.698;2023-09-19T08:27:04;21.20;99.90
66257;DHT22;53049;43.446;3.698;2023-09-19T08:29:30;21.20;99.90
66257;DHT22;53049;43.446;3.698;2023-09-19T08:31:57;21.30;99.90
66257;DHT22;53049;43.446;3.698;2023-09-19T08:34:24;21.40;99.90
66257;DHT22;53049;43.446;3.698;2023-09-19T08:36:54;21.40;99.90
66257;DHT22;53049;43.446;3.698;2023-09-19T08:39:23;21.50;99.90
66257;DHT22;53049;43.446;3.698;2023-09-19T08:41:49;21.60;99.90
66257;DHT22;53049;43.446;3.698;2023-09-19T08:44:16;21.70;99.90
66257;DHT22;53049;43.446;3.698;2023-09-19T08:46:43;21.80;99.90
66257;DHT22;53049;43.446;3.698;2023-09-19T08:49:36;21.90;99.90
66257;DHT22;53049;43.446;3.698;2023-09-19T08:52:22;22.40;99.90
66257;DHT22;53049;43.446;3.698;2023-09-19T08:54:52;22.70;99.90
66257;DHT22;53049;43.446;3.698;2023-09-19T08:57:21;23.00;99.90
66257;DHT22;53049;43.446;3.698;2023-09-19T08:59:51;23.00;99.90
66257;DHT22;53049;43.446;3.698;2023-09-19T09:02:17;23.00;99.90
66257;DHT22;53049;43.446;3.698;2023-09-19T09:04:47;23.00;99.90
66257;DHT22;53049;43.446;3.698;2023-09-19T09:07:14;23.30;99.90
66257;DHT22;53049;43.446;3.698;2023-09-19T09:09:42;23.80;99.90
66257;DHT22;53049;43.446;3.698;2023-09-19T09:12:13;23.80;99.90
66257;DHT22;53049;43.446;3.698;2023-09-19T09:14:40;23.90;99.90
66257;DHT22;53049;43.446;3.698;2023-09-19T09:17:07;23.90;99.90
66257;DHT22;53049;43.446;3.698;2023-09-19T09:19:33;24.10;99.90
66257;DHT22;53049;43.446;3.698;2023-09-19T09:22:09;24.10;99.90
66257;DHT22;53049;43.446;3.698;2023-09-19T09:24:35;23.80;99.90
66257;DHT22;53049;43.446;3.698;2023-09-19T09:27:05;23.80;99.90
66257;DHT22;53049;43.446;3.698;2023-09-19T09:29:44;23.80;99.90
66257;DHT22;53049;43.446;3.698;2023-09-19T09:32:19;23.80;99.90
66257;DHT22;53049;43.446;3.698;2023-09-19T09:34:47;23.90;99.90
66257;DHT22;53049;43.446;3.698;2023-09-19T09:37:15;24.10;99.90
66257;DHT22;53049;43.446;3.698;2023-09-19T09:39:58;24.10;99.90
66257;DHT22;53049;43.446;3.698;2023-09-19T09:42:45;24.10;99.90
66257;DHT22;53049;43.446;3.698;2023-09-19T09:47:53;24.10;99.90
66257;DHT22;53049;43.446;3.698;2023-09-19T09:50:25;24.10;99.90
66257;DHT22;53049;43.446;3.698;2023-09-19T09:53:29;24.10;99.90
66257;DHT22;53049;43.446;3.698;2023-09-19T09:56:05;24.10;99.90
66257;DHT22;53049;43.446;3.698;2023-09-19T10:01:01;24.10;99.90
66257;DHT22;53049;43.446;3.698;2023-09-19T10:03:37;24.10;99.90
66257;DHT22;53049;43.446;3.698;2023-09-19T10:06:13;24.10;99.90
66257;DHT22;53049;43.446;3.698;2023-09-19T10:09:09;24.10;99.90
66257;DHT22;53049;43.446;3.698;2023-09-19T10:11:43;24.20;99.90
66257;DHT22;53049;43.446;3.698;2023-09-19T10:14:11;24.20;99.90
66257;DHT22;53049;43.446;3.698;2023-09-19T10:16:41;24.30;99.90
66257;DHT22;53049;43.446;3.698;2023-09-19T10:19:11;24.30;99.90
66257;DHT22;53049;43.446;3.698;2023-09-19T10:21:41;24.30;99.90
66257;DHT22;53049;43.446;3.698;2023-09-19T10:24:09;24.30;99.90
66257;DHT22;53049;43.446;3.698;2023-09-19T10:26:36;24.30;99.90
66257;DHT22;53049;43.446;3.698;2023-09-19T10:29:03;24.30;99.90
66257;DHT22;53049;43.446;3.698;2023-09-19T10:31:32;24.30;99.90
66257;DHT22;53049;43.446;3.698;2023-09-19T10:34:03;24.30;99.90
66257;DHT22;53049;43.446;3.698;2023-09-19T10:36:32;24.40;99.90
66257;DHT22;53049;43.446;3.698;2023-09-19T10:39:00;24.50;99.90
66257;DHT22;53049;43.446;3.698;2023-09-19T10:41:30;24.60;99.90
66257;DHT22;53049;43.446;3.698;2023-09-19T10:44:02;24.60;99.90
66257;DHT22;53049;43.446;3.698;2023-09-19T10:46:28;24.60;99.90
66257;DHT22;53049;43.446;3.698;2023-09-19T10:48:59;24.60;99.90
66257;DHT22;53049;43.446;3.698;2023-09-19T10:51:38;24.60;99.90
66257;DHT22;53049;43.446;3.698;2023-09-19T10:54:11;24.60;99.90
66257;DHT22;53049;43.446;3.698;2023-09-19T10:56:42;24.70;99.90
66257;DHT22;53049;43.446;3.698;2023-09-19T10:59:11;24.90;99.90
66257;DHT22;53049;43.446;3.698;2023-09-19T11:07:04;25.10;99.90
66257;DHT22;53049;43.446;3.698;2023-09-19T11:09:55;24.90;99.90
66257;DHT22;53049;43.446;3.698;2023-09-19T11:14:56;25.00;99.90
66257;DHT22;53049;43.446;3.698;2023-09-19T11:30:44;25.20;99.90
66257;DHT22;53049;43.446;3.698;2023-09-19T11:36:09;25.30;99.90
66257;DHT22;53049;43.446;3.698;2023-09-19T11:46:33;25.50;99.90
66257;DHT22;53049;43.446;3.698;2023-09-19T11:49:06;25.50;99.90
66257;DHT22;53049;43.446;3.698;2023-09-19T11:51:42;25.60;99.90
66257;DHT22;53049;43.446;3.698;2023-09-19T11:54:13;25.50;99.90
66257;DHT22;53049;43.446;3.698;2023-09-19T11:56:47;25.50;99.90
66257;DHT22;53049;43.446;3.698;2023-09-19T11:59:27;25.60;99.90
66257;DHT22;53049;43.446;3.698;2023-09-19T12:02:06;25.50;99.90
66257;DHT22;53049;43.446;3.698;2023-09-19T12:04:44;25.60;99.90
66257;DHT22;53049;43.446;3.698;2023-09-19T12:07:16;25.70;99.90
66257;DHT22;53049;43.446;3.698;2023-09-19T12:09:43;25.70;99.90
66257;DHT22;53049;43.446;3.698;2023-09-19T12:12:10;25.70;99.90
66257;DHT22;53049;43.446;3.698;2023-09-19T12:14:38;25.80;99.90
66257;DHT22;53049;43.446;3.698;2023-09-19T12:17:06;25.90;99.90
66257;DHT22;53049;43.446;3.698;2023-09-19T12:19:32;26.00;99.90
66257;DHT22;53049;43.446;3.698;2023-09-19T12:22:02;26.00;99.90
66257;DHT22;53049;43.446;3.698;2023-09-19T12:24:30;26.00;99.90
66257;DHT22;53049;43.446;3.698;2023-09-19T12:27:04;26.00;99.90
66257;DHT22;53049;43.446;3.698;2023-09-19T12:29:31;26.00;99.90
66257;DHT22;53049;43.446;3.698;2023-09-19T12:31:58;25.90;99.90
66257;DHT22;53049;43.446;3.698;2023-09-19T12:34:27;26.00;99.90
66257;DHT22;53049;43.446;3.698;2023-09-19T12:37:15;26.10;99.90
66257;DHT22;53049;43.446;3.698;2023-09-19T12:39:46;26.00;99.90
66257;DHT22;53049;43.446;3.698;2023-09-19T12:42:15;26.00;99.90
66257;DHT22;53049;43.446;3.698;2023-09-19T12:44:44;26.00;99.90
66257;DHT22;53049;43.446;3.698;2023-09-19T12:47:14;26.10;99.90
66257;DHT22;53049;43.446;3.698;2023-09-19T12:50:13;26.20;99.90
66257;DHT22;53049;43.446;3.698;2023-09-19T12:52:41;26.20;99.90
66257;DHT22;53049;43.446;3.698;2023-09-19T12:55:07;26.30;99.90
66257;DHT22;53049;43.446;3.698;2023-09-19T12:57:36;26.30;99.90
66257;DHT22;53049;43.446;3.698;2023-09-19T13:00:03;26.30;99.90
66257;DHT22;53049;43.446;3.698;2023-09-19T13:02:31;26.30;99.90
66257;DHT22;53049;43.446;3.698;2023-09-19T13:04:58;26.10;99.90
66257;DHT22;53049;43.446;3.698;2023-09-19T13:07:43;26.30;99.90
66257;DHT22;53049;43.446;3.698;2023-09-19T13:10:09;26.50;99.90
66257;DHT22;53049;43.446;3.698;2023-09-19T13:12:37;26.50;99.90
66257;DHT22;53049;43.446;3.698;2023-09-19T13:15:09;26.50;99.90
66257;DHT22;53049;43.446;3.698;2023-09-19T13:17:49;26.50;99.90
66257;DHT22;53049;43.446;3.698;2023-09-19T13:20:27;26.50;99.90
66257;DHT22;53049;43.446;3.698;2023-09-19T13:22:53;26.40;99.90
66257;DHT22;53049;43.446;3.698;2023-09-19T13:25:23;26.50;99.90
66257;DHT22;53049;43.446;3.698;2023-09-19T13:27:53;26.50;99.90
66257;DHT22;53049;43.446;3.698;2023-09-19T13:30:24;26.50;99.90
66257;DHT22;53049;43.446;3.698;2023-09-19T13:32:51;26.40;99.90
66257;DHT22;53049;43.446;3.698;2023-09-19T13:35:18;26.40;99.90
66257;DHT22;53049;43.446;3.698;2023-09-19T13:37:45;26.40;99.90
66257;DHT22;53049;43.446;3.698;2023-09-19T13:40:17;26.40;99.90
66257;DHT22;53049;43.446;3.698;2023-09-19T13:42:43;26.60;99.90
66257;DHT22;53049;43.446;3.698;2023-09-19T13:45:09;26.60;99.90
66257;DHT22;53049;43.446;3.698;2023-09-19T13:47:37;26.60;99.90
66257;DHT22;53049;43.446;3.698;2023-09-19T13:50:04;26.50;99.90
66257;DHT22;53049;43.446;3.698;2023-09-19T13:52:33;26.40;99.90
66257;DHT22;53049;43.446;3.698;2023-09-19T13:54:59;26.40;99.90
66257;DHT22;53049;43.446;3.698;2023-09-19T13:57:25;26.50;99.90
66257;DHT22;53049;43.446;3.698;2023-09-19T13:59:52;26.60;99.90
66257;DHT22;53049;43.446;3.698;2023-09-19T14:02:20;26.70;99.90
66257;DHT22;53049;43.446;3.698;2023-09-19T14:04:48;26.70;99.90
66257;DHT22;53049;43.446;3.698;2023-09-19T14:07:15;26.70;99.90
66257;DHT22;53049;43.446;3.698;2023-09-19T14:09:41;26.60;99.90
66257;DHT22;53049;43.446;3.698;2023-09-19T14:12:06;26.60;99.90
66257;DHT22;53049;43.446;3.698;2023-09-19T14:14:32;26.50;99.90
66257;DHT22;53049;43.446;3.698;2023-09-19T14:16:58;26.60;99.90
66257;DHT22;53049;43.446;3.698;2023-09-19T14:19:27;26.60;99.90
66257;DHT22;53049;43.446;3.698;2023-09-19T14:21:53;26.50;99.90
66257;DHT22;53049;43.446;3.698;2023-09-19T14:24:21;26.40;99.90
66257;DHT22;53049;43.446;3.698;2023-09-19T14:26:48;26.30;99.90
66257;DHT22;53049;43.446;3.698;2023-09-19T14:29:15;26.40;99.90
66257;DHT22;53049;43.446;3.698;2023-09-19T14:31:41;26.60;99.90
66257;DHT22;53049;43.446;3.698;2023-09-19T14:34:07;26.60;99.90
66257;DHT22;53049;43.446;3.698;2023-09-19T14:36:40;26.70;99.90
66257;DHT22;53049;43.446;3.698;2023-09-19T14:39:05;26.80;99.90
66257;DHT22;53049;43.446;3.698;2023-09-19T14:41:31;26.70;99.90
66257;DHT22;53049;43.446;3.698;2023-09-19T14:43:57;26.70;99.90
66257;DHT22;53049;43.446;3.698;2023-09-19T14:46:23;26.40;99.90
66257;DHT22;53049;43.446;3.698;2023-09-19T14:48:52;26.30;99.90
66257;DHT22;53049;43.446;3.698;2023-09-19T14:51:18;26.20;99.90
66257;DHT22;53049;43.446;3.698;2023-09-19T14:53:44;26.20;99.90
66257;DHT22;53049;43.446;3.698;2023-09-19T14:56:10;26.30;99.90
66257;DHT22;53049;43.446;3.698;2023-09-19T14:58:37;26.40;99.90
66257;DHT22;53049;43.446;3.698;2023-09-19T15:01:09;26.50;99.90
66257;DHT22;53049;43.446;3.698;2023-09-19T15:03:39;26.50;99.90
66257;DHT22;53049;43.446;3.698;2023-09-19T15:06:09;26.60;99.90
66257;DHT22;53049;43.446;3.698;2023-09-19T15:08:37;26.60;99.90
66257;DHT22;53049;43.446;3.698;2023-09-19T15:11:09;26.60;99.90
66257;DHT22;53049;43.446;3.698;2023-09-19T15:13:36;26.60;99.90
66257;DHT22;53049;43.446;3.698;2023-09-19T15:16:06;26.60;99.90
66257;DHT22;53049;43.446;3.698;2023-09-19T15:18:37;26.60;99.90
66257;DHT22;53049;43.446;3.698;2023-09-19T15:21:07;26.60;99.90
66257;DHT22;53049;43.446;3.698;2023-09-19T15:23:34;26.60;99.90
66257;DHT22;53049;43.446;3.698;2023-09-19T15:26:05;26.70;99.90
66257;DHT22;53049;43.446;3.698;2023-09-19T15:28:32;26.70;99.90
66257;DHT22;53049;43.446;3.698;2023-09-19T15:31:04;26.70;99.90
66257;DHT22;53049;43.446;3.698;2023-09-19T15:33:31;26.70;99.90
66257;DHT22;53049;43.446;3.698;2023-09-19T15:36:14;26.70;99.90
66257;DHT22;53049;43.446;3.698;2023-09-19T15:41:30;26.70;99.90
66257;DHT22;53049;43.446;3.698;2023-09-19T15:43:57;26.70;99.90
66257;DHT22;53049;43.446;3.698;2023-09-19T15:46:24;26.70;99.90
66257;DHT22;53049;43.446;3.698;2023-09-19T15:48:55;26.60;99.90
66257;DHT22;53049;43.446;3.698;2023-09-19T15:51:21;26.70;99.90
66257;DHT22;53049;43.446;3.698;2023-09-19T15:53:49;26.70;99.90
66257;DHT22;53049;43.446;3.698;2023-09-19T15:56:15;26.70;99.90
66257;DHT22;53049;43.446;3.698;2023-09-19T15:58:47;26.60;99.90
66257;DHT22;53049;43.446;3.698;2023-09-19T16:01:14;26.60;99.90
66257;DHT22;53049;43.446;3.698;2023-09-19T16:03:45;26.60;99.90
66257;DHT22;53049;43.446;3.698;2023-09-19T16:06:19;26.60;99.90
66257;DHT22;53049;43.446;3.698;2023-09-19T16:08:50;26.60;99.90
66257;DHT22;53049;43.446;3.698;2023-09-19T16:11:17;26.50;99.90
66257;DHT22;53049;43.446;3.698;2023-09-19T16:13:43;26.60;99.90
66257;DHT22;53049;43.446;3.698;2023-09-19T16:16:12;26.50;99.90
66257;DHT22;53049;43.446;3.698;2023-09-19T16:18:54;26.40;99.90
66257;DHT22;53049;43.446;3.698;2023-09-19T16:21:25;26.40;99.90
66257;DHT22;53049;43.446;3.698;2023-09-19T16:23:55;26.40;99.90
66257;DHT22;53049;43.446;3.698;2023-09-19T16:26:21;26.40;99.90
66257;DHT22;53049;43.446;3.698;2023-09-19T16:28:51;26.40;99.90
66257;DHT22;53049;43.446;3.698;2023-09-19T16:31:17;26.30;99.90
66257;DHT22;53049;43.446;3.698;2023-09-19T16:33:44;26.20;99.90